< Typhoon 201308 2013 Season Typhoon 201310 >
Typhoon 201309 (JEBI)
General InformationTrack Information on Google MapsDetailed Wind InformationForecast History on Google MapsAccess Analytics MapList of All Images || NewsDisaster Info.WeblogTrackbackTyphoon FrontTwiphoonTyphoon Now!Typhoon ImaginationDisaster Info. XMLResourceGoogle EarthGE AnimationAtom FeedGeoJSON
Detalied Best Track (Time Zone = UTC)
Year Month Day Hour Lat. Long. Pressure (hPa) Wind (kt) Class Image Chart
2013 7 28 18 13.1 123.3 1006 0 2 Image Chart
2013 7 29 00 13.2 122.4 1008 0 2 Image Chart
2013 7 29 06 13.4 121.6 1006 0 2 Image Chart
2013 7 29 12 13.6 120.9 1006 0 2 Image Chart
2013 7 29 18 13.7 120.1 1004 0 2 Image Chart
2013 7 30 00 13.8 119.5 1004 0 2 Image Chart
2013 7 30 06 14.0 118.4 1002 0 2 Image Chart
2013 7 30 12 14.3 117.5 1002 0 2 Image Chart
2013 7 30 18 14.6 117.0 1002 0 2 Image Chart
2013 7 31 00 14.7 116.3 1000 35 3 Image Chart
2013 7 31 06 14.8 115.7 998 35 3 Image Chart
2013 7 31 12 15.1 115.0 994 35 3 Image Chart
2013 7 31 18 15.3 114.5 994 35 3 Image Chart
2013 8 1 00 15.6 113.8 994 35 3 Image Chart
2013 8 1 06 16.1 113.5 994 35 3 Image Chart
2013 8 1 12 16.4 113.2 992 40 3 Image Chart
2013 8 1 18 16.8 112.8 990 40 3 Image Chart
2013 8 2 00 17.7 112.5 990 40 3 Image Chart
2013 8 2 06 18.8 111.8 985 50 4 Image Chart
2013 8 2 12 19.7 111.1 985 50 4 Image Chart
2013 8 2 18 20.3 109.4 985 50 4 Image Chart
2013 8 3 00 21.0 107.9 985 50 4 Image Chart
2013 8 3 06 21.6 106.5 990 40 3 Image Chart
2013 8 3 12 22.0 104.5 998 0 2 Image Chart
Japan Meteorological Agency Best Track Data | Correction Date : 2013-08-20
< Typhoon 201308 2013 Season Typhoon 201310 >

Help